Scott Bar, California
Current Conditions -  °F | °C
As of 8:53 PM on Friday 24 Oct 2014 (Local Time) from KSIY Reporting Station
Clear Clear  
Wind Chill: 60°   Ceiling: Unl
Heat Index: 60°   Visibility: 10mi
Dew Point: 42°   Wind: 18mph
Humidity: 51%   Direction: 170°S
Pressure: 29.79"   Gusts: 23mph
Location:  41.74°N, 123°W
Report Text: KSIY 250353Z AUTO 17016G20KT 10SM CLR 16/06 A2979 RMK AO2 SLP091 T01560056
Loading
Personal Weather Stations






























Interactive Weather Map
Tropical Storm Tracking
New forecast layout! Learn more

10-Day Weather Forecast

Advertisements
Track Severe Weather on mobile